SBI290 UNNT-USRR
Flight info
| Callsign | SBI290 |
|---|---|
| Flight time | 1h 27m |
| Altitude | 36000 |
| Route | DIMID1K DIMID R484 BA R104 KUPON R229 KARPO KARPO1T |
| Aircraft | B738/M-SDE2E3FGHIRWXY/LB1 |
Departure
| Time | 2026-04-28 09:55 |
|---|---|
| Airport | Novosibirsk Tolmachevo Airport (UNNT) |
Arrival
| Time | 2026-04-28 11:22 |
|---|---|
| Airport | Surgut International Airport (USRR) |
| Time | Latitude | Longitude | Altitude | Speed | Heading |
|---|---|---|---|---|---|
| 2026-04-28 09:28 | 55.01017 | 82.66673 | 372 ft | 0 kts | 172° |
| 2026-04-28 09:48 | 55.01026 | 82.66671 | 372 ft | 2 kts | 171° |
| 2026-04-28 09:48 | 55.01041 | 82.66667 | 372 ft | 2 kts | 172° |
| 2026-04-28 09:48 | 55.01055 | 82.66663 | 372 ft | 2 kts | 172° |
| 2026-04-28 09:48 | 55.01065 | 82.66661 | 372 ft | 2 kts | 162° |
| 2026-04-28 09:49 | 55.01076 | 82.66644 | 372 ft | 2 kts | 113° |
| 2026-04-28 09:49 | 55.01078 | 82.66621 | 372 ft | 1 kts | 73° |
| 2026-04-28 09:49 | 55.01075 | 82.66611 | 372 ft | 1 kts | 65° |
| 2026-04-28 09:49 | 55.01074 | 82.66607 | 372 ft | 0 kts | 67° |
| 2026-04-28 09:51 | 55.01076 | 82.66615 | 372 ft | 2 kts | 67° |
| 2026-04-28 09:51 | 55.01090 | 82.66692 | 371 ft | 10 kts | 77° |
| 2026-04-28 09:52 | 55.01096 | 82.66843 | 372 ft | 14 kts | 98° |
| 2026-04-28 09:52 | 55.01079 | 82.66966 | 372 ft | 9 kts | 85° |
| 2026-04-28 09:52 | 55.01091 | 82.67093 | 372 ft | 12 kts | 79° |
| 2026-04-28 09:52 | 55.01106 | 82.67260 | 372 ft | 15 kts | 83° |
| 2026-04-28 09:53 | 55.01123 | 82.67456 | 371 ft | 16 kts | 49° |
| 2026-04-28 09:53 | 55.01215 | 82.67560 | 372 ft | 15 kts | 30° |
| 2026-04-28 09:53 | 55.01302 | 82.67650 | 372 ft | 13 kts | 31° |
| 2026-04-28 09:53 | 55.01380 | 82.67730 | 371 ft | 12 kts | 30° |
| 2026-04-28 09:54 | 55.01465 | 82.67765 | 372 ft | 14 kts | 328° |
| 2026-04-28 09:54 | 55.01476 | 82.67602 | 372 ft | 14 kts | 261° |
| 2026-04-28 09:54 | 55.01453 | 82.67347 | 372 ft | 44 kts | 262° |
| 2026-04-28 09:54 | 55.01364 | 82.66389 | 372 ft | 113 kts | 262° |
| 2026-04-28 09:55 | 55.01211 | 82.64709 | 380 ft | 168 kts | 262° |
| 2026-04-28 09:55 | 55.01017 | 82.62708 | 1069 ft | 166 kts | 262° |
| 2026-04-28 09:55 | 55.00824 | 82.60755 | 1834 ft | 164 kts | 264° |
| 2026-04-28 09:55 | 55.00649 | 82.58752 | 2298 ft | 177 kts | 264° |
| 2026-04-28 09:56 | 55.00462 | 82.56527 | 2701 ft | 194 kts | 264° |
| 2026-04-28 09:56 | 55.00251 | 82.54146 | 3168 ft | 207 kts | 264° |
| 2026-04-28 09:56 | 55.00354 | 82.51563 | 3572 ft | 220 kts | 296° |
| 2026-04-28 09:56 | 55.01328 | 82.49519 | 4041 ft | 231 kts | 321° |
| 2026-04-28 09:57 | 55.02594 | 82.47631 | 4682 ft | 241 kts | 320° |
| 2026-04-28 09:57 | 55.03872 | 82.45633 | 5207 ft | 255 kts | 319° |
| 2026-04-28 09:57 | 55.05215 | 82.43522 | 5801 ft | 265 kts | 319° |
| 2026-04-28 09:57 | 55.06596 | 82.41357 | 5959 ft | 269 kts | 319° |
| 2026-04-28 09:58 | 55.07973 | 82.39199 | 6073 ft | 260 kts | 319° |
| 2026-04-28 09:58 | 55.09302 | 82.37113 | 6345 ft | 258 kts | 319° |
| 2026-04-28 09:58 | 55.10661 | 82.34982 | 6390 ft | 268 kts | 319° |
| 2026-04-28 09:58 | 55.12081 | 82.32751 | 6391 ft | 264 kts | 319° |
| 2026-04-28 09:59 | 55.13421 | 82.30643 | 6389 ft | 262 kts | 319° |
| 2026-04-28 09:59 | 55.14785 | 82.28495 | 6389 ft | 261 kts | 319° |
| 2026-04-28 09:59 | 55.16148 | 82.26347 | 6387 ft | 261 kts | 319° |
| 2026-04-28 09:59 | 55.17504 | 82.24209 | 6390 ft | 262 kts | 319° |
| 2026-04-28 10:00 | 55.18852 | 82.22081 | 6386 ft | 262 kts | 319° |
| 2026-04-28 10:00 | 55.20194 | 82.19961 | 6387 ft | 261 kts | 320° |
| 2026-04-28 10:00 | 55.21673 | 82.18105 | 6385 ft | 260 kts | 335° |
| 2026-04-28 10:00 | 55.23462 | 82.17341 | 6674 ft | 272 kts | 355° |
| 2026-04-28 10:01 | 55.25294 | 82.17098 | 7782 ft | 262 kts | 355° |
| 2026-04-28 10:01 | 55.27096 | 82.16808 | 8617 ft | 262 kts | 355° |
| 2026-04-28 10:01 | 55.28907 | 82.16505 | 9402 ft | 263 kts | 355° |
| 2026-04-28 10:01 | 55.30718 | 82.16205 | 10229 ft | 263 kts | 355° |
| 2026-04-28 10:02 | 55.32553 | 82.15903 | 10874 ft | 269 kts | 355° |
| 2026-04-28 10:02 | 55.34468 | 82.15588 | 11307 ft | 283 kts | 355° |
| 2026-04-28 10:02 | 55.36470 | 82.15259 | 11722 ft | 298 kts | 355° |
| 2026-04-28 10:02 | 55.38567 | 82.14914 | 12145 ft | 312 kts | 355° |
| 2026-04-28 10:03 | 55.40761 | 82.14864 | 12540 ft | 326 kts | 6° |
| 2026-04-28 10:03 | 55.42974 | 82.15994 | 13028 ft | 338 kts | 22° |
| 2026-04-28 10:03 | 55.45103 | 82.17778 | 13780 ft | 342 kts | 24° |
| 2026-04-28 10:03 | 55.47253 | 82.19627 | 14536 ft | 345 kts | 23° |
| 2026-04-28 10:04 | 55.49399 | 82.21449 | 15333 ft | 347 kts | 23° |
| 2026-04-28 10:04 | 55.51553 | 82.23263 | 16155 ft | 348 kts | 22° |
| 2026-04-28 10:04 | 55.53761 | 82.25115 | 16866 ft | 352 kts | 22° |
| 2026-04-28 10:04 | 55.55947 | 82.26948 | 17635 ft | 354 kts | 21° |
| 2026-04-28 10:05 | 55.58180 | 82.28820 | 18368 ft | 356 kts | 21° |
| 2026-04-28 10:05 | 55.60438 | 82.30714 | 19037 ft | 360 kts | 21° |
| 2026-04-28 10:05 | 55.62706 | 82.32619 | 19759 ft | 362 kts | 21° |
| 2026-04-28 10:05 | 55.64959 | 82.34514 | 20449 ft | 365 kts | 21° |
| 2026-04-28 10:06 | 55.67278 | 82.36465 | 21079 ft | 368 kts | 21° |
| 2026-04-28 10:06 | 55.69587 | 82.38412 | 21778 ft | 370 kts | 21° |
| 2026-04-28 10:06 | 55.71915 | 82.40376 | 22383 ft | 373 kts | 21° |
| 2026-04-28 10:06 | 55.74252 | 82.42351 | 22940 ft | 377 kts | 21° |
| 2026-04-28 10:07 | 55.76620 | 82.44354 | 23571 ft | 379 kts | 21° |
| 2026-04-28 10:07 | 55.79026 | 82.46395 | 24186 ft | 381 kts | 20° |
| 2026-04-28 10:07 | 55.81420 | 82.48426 | 24687 ft | 384 kts | 20° |
| 2026-04-28 10:07 | 55.83823 | 82.50468 | 25290 ft | 385 kts | 21° |
| 2026-04-28 10:08 | 55.86222 | 82.52510 | 25828 ft | 386 kts | 20° |
| 2026-04-28 10:08 | 55.88684 | 82.54607 | 26240 ft | 391 kts | 20° |
| 2026-04-28 10:08 | 55.91127 | 82.56692 | 26789 ft | 391 kts | 20° |
| 2026-04-28 10:08 | 55.93595 | 82.58802 | 27247 ft | 394 kts | 21° |
| 2026-04-28 10:09 | 55.96072 | 82.60922 | 27713 ft | 396 kts | 20° |
| 2026-04-28 10:09 | 55.98561 | 82.63056 | 28153 ft | 398 kts | 20° |
| 2026-04-28 10:09 | 56.01125 | 82.65060 | 28551 ft | 398 kts | 17° |
| 2026-04-28 10:09 | 56.03750 | 82.66528 | 28977 ft | 396 kts | 10° |
| 2026-04-28 10:10 | 56.06511 | 82.67169 | 29374 ft | 395 kts | 1° |
| 2026-04-28 10:10 | 56.09250 | 82.67181 | 29976 ft | 391 kts | 356° |
| 2026-04-28 10:10 | 56.11955 | 82.66649 | 30619 ft | 387 kts | 349° |
| 2026-04-28 10:10 | 56.14591 | 82.65314 | 31128 ft | 385 kts | 342° |
| 2026-04-28 10:11 | 56.17112 | 82.63660 | 31538 ft | 386 kts | 341° |
| 2026-04-28 10:11 | 56.19604 | 82.61957 | 31864 ft | 387 kts | 341° |
| 2026-04-28 10:11 | 56.22144 | 82.60220 | 32278 ft | 387 kts | 341° |
| 2026-04-28 10:11 | 56.24646 | 82.58516 | 32656 ft | 386 kts | 341° |
| 2026-04-28 10:12 | 56.27162 | 82.56808 | 33000 ft | 387 kts | 341° |
| 2026-04-28 10:12 | 56.29660 | 82.55112 | 33364 ft | 386 kts | 341° |
| 2026-04-28 10:12 | 56.32163 | 82.53413 | 33726 ft | 385 kts | 340° |
| 2026-04-28 10:12 | 56.34695 | 82.51691 | 34062 ft | 385 kts | 340° |
| 2026-04-28 10:13 | 56.37185 | 82.49996 | 34351 ft | 385 kts | 340° |
| 2026-04-28 10:13 | 56.39691 | 82.48289 | 34593 ft | 387 kts | 340° |
| 2026-04-28 10:13 | 56.42213 | 82.46569 | 34829 ft | 388 kts | 340° |
| 2026-04-28 10:13 | 56.44748 | 82.44837 | 35090 ft | 389 kts | 340° |
| 2026-04-28 10:14 | 56.47271 | 82.43113 | 35354 ft | 389 kts | 340° |
| 2026-04-28 10:14 | 56.49780 | 82.41396 | 35558 ft | 391 kts | 340° |
| 2026-04-28 10:14 | 56.52330 | 82.39648 | 35760 ft | 392 kts | 340° |
| 2026-04-28 10:14 | 56.54887 | 82.37892 | 35999 ft | 393 kts | 340° |
| 2026-04-28 10:15 | 56.57461 | 82.36123 | 36186 ft | 394 kts | 340° |
| 2026-04-28 10:15 | 56.60039 | 82.34348 | 36096 ft | 396 kts | 339° |
| 2026-04-28 10:15 | 56.62617 | 82.32571 | 36557 ft | 395 kts | 339° |
| 2026-04-28 10:15 | 56.65204 | 82.30785 | 36444 ft | 402 kts | 339° |
| 2026-04-28 10:16 | 56.67808 | 82.28983 | 36146 ft | 397 kts | 339° |
| 2026-04-28 10:16 | 56.70353 | 82.27221 | 36330 ft | 391 kts | 339° |
| 2026-04-28 10:16 | 56.75497 | 82.23650 | 36367 ft | 400 kts | 339° |
| 2026-04-28 10:17 | 56.80719 | 82.20013 | 36369 ft | 399 kts | 339° |
| 2026-04-28 10:17 | 56.85879 | 82.16412 | 36377 ft | 398 kts | 339° |
| 2026-04-28 10:18 | 56.91012 | 82.12819 | 36367 ft | 399 kts | 339° |
| 2026-04-28 10:18 | 56.96185 | 82.09132 | 36368 ft | 398 kts | 336° |
| 2026-04-28 10:19 | 57.00927 | 82.04013 | 36363 ft | 400 kts | 322° |
| 2026-04-28 10:19 | 57.04763 | 81.96475 | 36365 ft | 404 kts | 312° |
| 2026-04-28 10:20 | 57.08217 | 81.88360 | 36376 ft | 404 kts | 311° |
| 2026-04-28 10:20 | 57.11672 | 81.80180 | 36379 ft | 403 kts | 311° |
| 2026-04-28 10:21 | 57.15158 | 81.71905 | 36398 ft | 403 kts | 311° |
| 2026-04-28 10:21 | 57.18572 | 81.63771 | 36380 ft | 402 kts | 311° |
| 2026-04-28 10:22 | 57.21997 | 81.55584 | 36371 ft | 402 kts | 311° |
| 2026-04-28 10:22 | 57.25396 | 81.47430 | 36379 ft | 401 kts | 311° |
| 2026-04-28 10:23 | 57.28784 | 81.39275 | 36378 ft | 401 kts | 311° |
| 2026-04-28 10:23 | 57.32205 | 81.31012 | 36378 ft | 400 kts | 311° |
| 2026-04-28 10:24 | 57.35585 | 81.22819 | 36381 ft | 399 kts | 311° |
| 2026-04-28 10:24 | 57.38953 | 81.14628 | 36386 ft | 400 kts | 311° |
| 2026-04-28 10:25 | 57.42309 | 81.06435 | 36381 ft | 400 kts | 311° |
| 2026-04-28 10:25 | 57.45675 | 80.98194 | 36382 ft | 400 kts | 311° |
| 2026-04-28 10:26 | 57.47533 | 80.93634 | 36387 ft | 400 kts | 310° |
| 2026-04-28 10:26 | 57.50035 | 80.87474 | 36377 ft | 400 kts | 310° |
| 2026-04-28 10:27 | 57.53375 | 80.79230 | 36373 ft | 401 kts | 310° |
| 2026-04-28 10:27 | 57.56729 | 80.70926 | 36370 ft | 400 kts | 310° |
| 2026-04-28 10:28 | 57.60076 | 80.62603 | 36373 ft | 399 kts | 310° |
| 2026-04-28 10:29 | 57.65052 | 80.50184 | 36377 ft | 400 kts | 310° |
| 2026-04-28 10:29 | 57.68376 | 80.41869 | 36366 ft | 399 kts | 310° |
| 2026-04-28 10:30 | 57.71708 | 80.33508 | 36370 ft | 399 kts | 310° |
| 2026-04-28 10:30 | 57.75068 | 80.25042 | 36372 ft | 400 kts | 310° |
| 2026-04-28 10:31 | 57.78383 | 80.16663 | 36364 ft | 400 kts | 309° |
| 2026-04-28 10:31 | 57.81682 | 80.08292 | 36370 ft | 401 kts | 309° |
| 2026-04-28 10:32 | 57.84991 | 79.99866 | 36364 ft | 400 kts | 309° |
| 2026-04-28 10:32 | 57.88295 | 79.91427 | 36375 ft | 401 kts | 309° |
| 2026-04-28 10:33 | 57.91598 | 79.82958 | 36371 ft | 400 kts | 309° |
| 2026-04-28 10:33 | 57.94866 | 79.74548 | 36373 ft | 400 kts | 309° |
| 2026-04-28 10:34 | 57.98134 | 79.66077 | 36365 ft | 399 kts | 309° |
| 2026-04-28 10:34 | 58.01375 | 79.57538 | 36356 ft | 401 kts | 309° |
| 2026-04-28 10:35 | 58.04601 | 79.49010 | 36350 ft | 399 kts | 309° |
| 2026-04-28 10:35 | 58.07836 | 79.40436 | 36354 ft | 399 kts | 308° |
| 2026-04-28 10:36 | 58.11069 | 79.31839 | 36352 ft | 400 kts | 308° |
| 2026-04-28 10:36 | 58.14322 | 79.23160 | 36354 ft | 400 kts | 308° |
| 2026-04-28 10:37 | 58.17522 | 79.14591 | 36341 ft | 399 kts | 308° |
| 2026-04-28 10:37 | 58.20733 | 79.05956 | 36349 ft | 400 kts | 308° |
| 2026-04-28 10:38 | 58.23910 | 78.97388 | 36350 ft | 400 kts | 307° |
| 2026-04-28 10:38 | 58.27105 | 78.88740 | 36357 ft | 400 kts | 307° |
| 2026-04-28 10:39 | 58.30099 | 78.80605 | 36348 ft | 399 kts | 308° |
| 2026-04-28 10:39 | 58.33320 | 78.71825 | 36353 ft | 400 kts | 307° |
| 2026-04-28 10:40 | 58.36376 | 78.63465 | 36348 ft | 399 kts | 307° |
| 2026-04-28 10:40 | 58.39555 | 78.54733 | 36342 ft | 401 kts | 307° |
| 2026-04-28 10:41 | 58.42711 | 78.46036 | 36338 ft | 400 kts | 307° |
| 2026-04-28 10:41 | 58.45884 | 78.37261 | 36338 ft | 400 kts | 307° |
| 2026-04-28 10:42 | 58.48999 | 78.28614 | 36339 ft | 401 kts | 306° |
| 2026-04-28 10:42 | 58.52140 | 78.19863 | 36339 ft | 401 kts | 306° |
| 2026-04-28 10:43 | 58.55293 | 78.11044 | 36337 ft | 400 kts | 306° |
| 2026-04-28 10:43 | 58.58442 | 78.02205 | 36337 ft | 401 kts | 306° |
| 2026-04-28 10:44 | 58.61596 | 77.93317 | 36337 ft | 402 kts | 306° |
| 2026-04-28 10:44 | 58.64719 | 77.84486 | 36331 ft | 402 kts | 306° |
| 2026-04-28 10:45 | 58.67853 | 77.75591 | 36331 ft | 403 kts | 306° |
| 2026-04-28 10:45 | 58.71005 | 77.66609 | 36325 ft | 403 kts | 306° |
| 2026-04-28 10:46 | 58.74120 | 77.57698 | 36325 ft | 403 kts | 306° |
| 2026-04-28 10:46 | 58.77241 | 77.48740 | 36322 ft | 403 kts | 305° |
| 2026-04-28 10:47 | 58.80349 | 77.39783 | 36320 ft | 403 kts | 306° |
| 2026-04-28 10:47 | 58.83426 | 77.30881 | 36321 ft | 403 kts | 305° |
| 2026-04-28 10:48 | 58.86548 | 77.21815 | 36320 ft | 404 kts | 304° |
| 2026-04-28 10:48 | 58.89638 | 77.12807 | 36320 ft | 404 kts | 304° |
| 2026-04-28 10:49 | 58.92750 | 77.03703 | 36318 ft | 405 kts | 304° |
| 2026-04-28 10:49 | 58.95848 | 76.94608 | 36315 ft | 405 kts | 304° |
| 2026-04-28 10:50 | 58.98931 | 76.85516 | 36317 ft | 404 kts | 304° |
| 2026-04-28 10:50 | 59.02008 | 76.76408 | 36313 ft | 405 kts | 304° |
| 2026-04-28 10:51 | 59.05351 | 76.67433 | 36311 ft | 412 kts | 313° |
| 2026-04-28 10:51 | 59.09430 | 76.59686 | 36312 ft | 412 kts | 316° |
| 2026-04-28 10:52 | 59.13633 | 76.51801 | 36308 ft | 411 kts | 315° |
| 2026-04-28 10:52 | 59.17712 | 76.43953 | 36303 ft | 412 kts | 315° |
| 2026-04-28 10:53 | 59.21761 | 76.36047 | 36301 ft | 412 kts | 315° |
| 2026-04-28 10:53 | 59.25821 | 76.28047 | 36295 ft | 412 kts | 314° |
| 2026-04-28 10:54 | 59.29832 | 76.20096 | 36295 ft | 413 kts | 314° |
| 2026-04-28 10:54 | 59.33880 | 76.12032 | 36294 ft | 413 kts | 313° |
| 2026-04-28 10:55 | 59.37876 | 76.04042 | 36291 ft | 413 kts | 313° |
| 2026-04-28 10:55 | 59.41883 | 75.95998 | 36285 ft | 412 kts | 313° |
| 2026-04-28 10:56 | 59.45912 | 75.87879 | 36282 ft | 413 kts | 313° |
| 2026-04-28 10:56 | 59.49897 | 75.79819 | 36278 ft | 414 kts | 313° |
| 2026-04-28 10:57 | 59.53917 | 75.71657 | 36276 ft | 415 kts | 313° |
| 2026-04-28 10:57 | 59.57927 | 75.63489 | 36273 ft | 415 kts | 313° |
| 2026-04-28 10:58 | 59.61927 | 75.55311 | 36270 ft | 415 kts | 313° |
| 2026-04-28 10:58 | 59.65941 | 75.47074 | 36263 ft | 414 kts | 313° |
| 2026-04-28 10:59 | 59.69949 | 75.38818 | 36258 ft | 415 kts | 313° |
| 2026-04-28 10:59 | 59.74096 | 75.30749 | 36257 ft | 416 kts | 316° |
| 2026-04-28 11:00 | 59.78856 | 75.24168 | 36254 ft | 419 kts | 326° |
| 2026-04-28 11:00 | 59.83963 | 75.18509 | 36250 ft | 422 kts | 328° |
| 2026-04-28 11:01 | 59.89122 | 75.12888 | 35950 ft | 426 kts | 328° |
| 2026-04-28 11:01 | 59.91735 | 75.10026 | 35308 ft | 430 kts | 328° |
| 2026-04-28 11:01 | 59.94353 | 75.07154 | 34551 ft | 429 kts | 328° |
| 2026-04-28 11:01 | 59.96937 | 75.04315 | 33755 ft | 426 kts | 328° |
| 2026-04-28 11:02 | 59.99511 | 75.01482 | 32957 ft | 423 kts | 328° |
| 2026-04-28 11:02 | 60.02079 | 74.98647 | 32144 ft | 421 kts | 328° |
| 2026-04-28 11:02 | 60.04610 | 74.95848 | 31324 ft | 419 kts | 328° |
| 2026-04-28 11:02 | 60.07143 | 74.93040 | 30480 ft | 417 kts | 328° |
| 2026-04-28 11:03 | 60.09683 | 74.90221 | 29594 ft | 417 kts | 328° |
| 2026-04-28 11:03 | 60.12189 | 74.87437 | 28987 ft | 405 kts | 328° |
| 2026-04-28 11:03 | 60.14657 | 74.84692 | 28439 ft | 395 kts | 328° |
| 2026-04-28 11:03 | 60.17067 | 74.82004 | 27853 ft | 391 kts | 327° |
| 2026-04-28 11:04 | 60.19461 | 74.79321 | 27253 ft | 398 kts | 327° |
| 2026-04-28 11:04 | 60.21898 | 74.76582 | 26633 ft | 408 kts | 328° |
| 2026-04-28 11:04 | 60.24374 | 74.73798 | 25996 ft | 409 kts | 328° |
| 2026-04-28 11:04 | 60.26840 | 74.71028 | 25361 ft | 406 kts | 328° |
| 2026-04-28 11:05 | 60.29319 | 74.68240 | 24717 ft | 402 kts | 328° |
| 2026-04-28 11:05 | 60.31722 | 74.65533 | 24092 ft | 400 kts | 327° |
| 2026-04-28 11:05 | 60.34167 | 74.62773 | 23446 ft | 397 kts | 327° |
| 2026-04-28 11:05 | 60.36540 | 74.60088 | 22822 ft | 394 kts | 327° |
| 2026-04-28 11:06 | 60.38936 | 74.57372 | 22193 ft | 391 kts | 327° |
| 2026-04-28 11:06 | 60.41297 | 74.54691 | 21561 ft | 388 kts | 327° |
| 2026-04-28 11:06 | 60.43636 | 74.52033 | 20941 ft | 386 kts | 327° |
| 2026-04-28 11:06 | 60.45977 | 74.49368 | 20312 ft | 384 kts | 327° |
| 2026-04-28 11:07 | 60.48283 | 74.46739 | 19679 ft | 381 kts | 327° |
| 2026-04-28 11:07 | 60.50588 | 74.44106 | 19062 ft | 379 kts | 327° |
| 2026-04-28 11:07 | 60.52882 | 74.41481 | 18433 ft | 377 kts | 327° |
| 2026-04-28 11:07 | 60.55150 | 74.38880 | 17817 ft | 375 kts | 327° |
| 2026-04-28 11:08 | 60.57408 | 74.36287 | 17209 ft | 373 kts | 327° |
| 2026-04-28 11:08 | 60.59693 | 74.33660 | 16558 ft | 371 kts | 326° |
| 2026-04-28 11:08 | 60.61972 | 74.31051 | 15925 ft | 369 kts | 326° |
| 2026-04-28 11:08 | 60.64215 | 74.28506 | 15325 ft | 367 kts | 327° |
| 2026-04-28 11:09 | 60.66452 | 74.25968 | 14691 ft | 366 kts | 326° |
| 2026-04-28 11:09 | 60.68653 | 74.23464 | 14076 ft | 364 kts | 326° |
| 2026-04-28 11:09 | 60.70873 | 74.20933 | 13437 ft | 361 kts | 326° |
| 2026-04-28 11:09 | 60.73041 | 74.18459 | 12822 ft | 356 kts | 326° |
| 2026-04-28 11:10 | 60.75201 | 74.15989 | 12194 ft | 351 kts | 326° |
| 2026-04-28 11:10 | 60.77294 | 74.13591 | 11595 ft | 346 kts | 326° |
| 2026-04-28 11:10 | 60.79369 | 74.11211 | 11084 ft | 336 kts | 326° |
| 2026-04-28 11:10 | 60.81373 | 74.08913 | 10796 ft | 319 kts | 326° |
| 2026-04-28 11:11 | 60.83237 | 74.06773 | 10660 ft | 300 kts | 326° |
| 2026-04-28 11:11 | 60.85084 | 74.05002 | 10542 ft | 289 kts | 334° |
| 2026-04-28 11:11 | 60.86950 | 74.03665 | 10413 ft | 278 kts | 336° |
| 2026-04-28 11:11 | 60.88771 | 74.02425 | 10167 ft | 274 kts | 336° |
| 2026-04-28 11:12 | 60.90561 | 74.01185 | 9783 ft | 274 kts | 336° |
| 2026-04-28 11:12 | 60.92380 | 73.99910 | 9424 ft | 273 kts | 335° |
| 2026-04-28 11:12 | 60.94170 | 73.98653 | 9078 ft | 272 kts | 336° |
| 2026-04-28 11:12 | 60.95952 | 73.97399 | 8735 ft | 270 kts | 335° |
| 2026-04-28 11:13 | 60.97713 | 73.96157 | 8398 ft | 269 kts | 335° |
| 2026-04-28 11:13 | 60.99468 | 73.94919 | 8058 ft | 268 kts | 335° |
| 2026-04-28 11:13 | 61.01232 | 73.93671 | 7711 ft | 267 kts | 336° |
| 2026-04-28 11:13 | 61.02988 | 73.92429 | 7375 ft | 266 kts | 336° |
| 2026-04-28 11:14 | 61.04726 | 73.91198 | 7045 ft | 264 kts | 335° |
| 2026-04-28 11:14 | 61.06468 | 73.89963 | 6708 ft | 263 kts | 335° |
| 2026-04-28 11:14 | 61.08201 | 73.88731 | 6369 ft | 263 kts | 336° |
| 2026-04-28 11:14 | 61.09922 | 73.87507 | 6032 ft | 262 kts | 336° |
| 2026-04-28 11:15 | 61.11657 | 73.86273 | 5686 ft | 262 kts | 336° |
| 2026-04-28 11:15 | 61.13359 | 73.85061 | 5353 ft | 261 kts | 336° |
| 2026-04-28 11:15 | 61.15085 | 73.83829 | 5019 ft | 260 kts | 336° |
| 2026-04-28 11:15 | 61.16789 | 73.82611 | 4685 ft | 260 kts | 336° |
| 2026-04-28 11:16 | 61.18495 | 73.81391 | 4347 ft | 259 kts | 336° |
| 2026-04-28 11:16 | 61.20191 | 73.80177 | 4006 ft | 258 kts | 336° |
| 2026-04-28 11:16 | 61.21886 | 73.78960 | 3542 ft | 261 kts | 336° |
| 2026-04-28 11:16 | 61.23608 | 73.77726 | 3187 ft | 259 kts | 337° |
| 2026-04-28 11:17 | 61.25277 | 73.76532 | 2983 ft | 250 kts | 336° |
| 2026-04-28 11:17 | 61.26912 | 73.75359 | 2773 ft | 242 kts | 336° |
| 2026-04-28 11:17 | 61.28479 | 73.74229 | 2493 ft | 239 kts | 337° |
| 2026-04-28 11:17 | 61.30038 | 73.73104 | 2263 ft | 234 kts | 336° |
| 2026-04-28 11:18 | 61.31513 | 73.71960 | 2182 ft | 214 kts | 327° |
| 2026-04-28 11:18 | 61.32482 | 73.69971 | 2050 ft | 186 kts | 292° |
| 2026-04-28 11:18 | 61.33197 | 73.67729 | 1864 ft | 185 kts | 308° |
| 2026-04-28 11:18 | 61.34108 | 73.65912 | 1720 ft | 175 kts | 301° |
| 2026-04-28 11:19 | 61.34475 | 73.63698 | 1547 ft | 154 kts | 264° |
| 2026-04-28 11:19 | 61.34450 | 73.61543 | 1506 ft | 145 kts | 263° |
| 2026-04-28 11:19 | 61.34436 | 73.59421 | 1523 ft | 150 kts | 263° |
| 2026-04-28 11:19 | 61.34423 | 73.57157 | 1455 ft | 162 kts | 264° |
| 2026-04-28 11:20 | 61.34414 | 73.54745 | 1163 ft | 163 kts | 265° |
| 2026-04-28 11:20 | 61.34416 | 73.52525 | 977 ft | 144 kts | 266° |
| 2026-04-28 11:20 | 61.34409 | 73.50481 | 743 ft | 141 kts | 264° |
| 2026-04-28 11:20 | 61.34404 | 73.48429 | 580 ft | 142 kts | 266° |
| 2026-04-28 11:21 | 61.34404 | 73.46383 | 383 ft | 138 kts | 267° |
| 2026-04-28 11:21 | 61.34399 | 73.44370 | 187 ft | 138 kts | 266° |
| 2026-04-28 11:21 | 61.34396 | 73.42384 | 17 ft | 134 kts | 266° |
| 2026-04-28 11:21 | 61.34389 | 73.40723 | 9 ft | 85 kts | 271° |
| 2026-04-28 11:22 | 61.34388 | 73.39774 | 9 ft | 60 kts | 270° |
| 2026-04-28 11:22 | 61.34384 | 73.39135 | 9 ft | 20 kts | 271° |
| 2026-04-28 11:22 | 61.34374 | 73.38937 | 9 ft | 11 kts | 227° |
| 2026-04-28 11:22 | 61.34306 | 73.38899 | 9 ft | 9 kts | 182° |
| 2026-04-28 11:23 | 61.34241 | 73.38899 | 9 ft | 3 kts | 180° |
| 2026-04-28 11:23 | 61.34236 | 73.38899 | 9 ft | 0 kts | 180° |
| 2026-04-28 11:23 | 61.34230 | 73.38899 | 9 ft | 3 kts | 180° |
| 2026-04-28 11:24 | 61.34183 | 73.38925 | 9 ft | 10 kts | 131° |
| 2026-04-28 11:24 | 61.34173 | 73.39030 | 8 ft | 0 kts | 88° |
| 2026-04-28 11:25 | 61.34174 | 73.39045 | 9 ft | 5 kts | 89° |
| 2026-04-28 11:25 | 61.34174 | 73.39243 | 9 ft | 19 kts | 89° |
| 2026-04-28 11:25 | 61.34176 | 73.39519 | 9 ft | 18 kts | 90° |
| 2026-04-28 11:26 | 61.34177 | 73.39784 | 9 ft | 17 kts | 90° |
| 2026-04-28 11:26 | 61.34178 | 73.40033 | 9 ft | 17 kts | 90° |
| 2026-04-28 11:26 | 61.34179 | 73.40234 | 9 ft | 8 kts | 90° |
| 2026-04-28 11:26 | 61.34171 | 73.40321 | 9 ft | 5 kts | 124° |
| 2026-04-28 11:27 | 61.34141 | 73.40346 | 9 ft | 4 kts | 176° |
| 2026-04-28 11:27 | 61.34116 | 73.40346 | 9 ft | 0 kts | 180° |